createdAt,value
2024-01-26T00:02:12.352Z,3.74
2024-01-26T00:04:39.460Z,3.73
2024-01-26T00:07:06.654Z,3.74
2024-01-26T00:09:33.599Z,3.75
2024-01-26T00:12:00.399Z,3.75
2024-01-26T00:14:27.036Z,3.75
2024-01-26T00:16:53.737Z,3.73
2024-01-26T00:19:20.555Z,3.70
2024-01-26T00:21:47.335Z,3.67
2024-01-26T00:24:14.034Z,3.64
2024-01-26T00:26:41.214Z,3.63
2024-01-26T00:29:08.096Z,3.62
2024-01-26T00:31:34.797Z,3.62
2024-01-26T00:34:01.564Z,3.62
2024-01-26T00:36:28.285Z,3.62
2024-01-26T00:38:54.982Z,3.58
2024-01-26T00:41:22.276Z,3.55
2024-01-26T00:43:49.064Z,3.53
2024-01-26T00:46:15.813Z,3.51
2024-01-26T00:48:42.885Z,3.47
2024-01-26T00:51:09.799Z,3.43
2024-01-26T00:53:36.482Z,3.39
2024-01-26T00:56:03.382Z,3.39
2024-01-26T00:58:30.585Z,3.35
2024-01-26T01:00:57.588Z,3.34
2024-01-26T01:03:25.309Z,3.35
2024-01-26T01:05:52.334Z,3.31
2024-01-26T01:08:19.445Z,3.31
2024-01-26T01:10:46.075Z,3.31
2024-01-26T01:13:13.141Z,3.26
2024-01-26T01:15:41.621Z,3.23
2024-01-26T01:18:08.824Z,3.19
2024-01-26T01:20:36.392Z,3.14
2024-01-26T01:23:04.143Z,3.04
2024-01-26T01:25:30.812Z,2.94
2024-01-26T01:27:57.480Z,2.84
2024-01-26T01:30:24.538Z,2.68
2024-01-26T01:32:51.231Z,2.43
2024-01-26T01:35:18.055Z,2.21
2024-01-26T01:37:44.686Z,2.04
2024-01-26T01:40:11.690Z,1.97
2024-01-26T01:42:38.355Z,1.88
2024-01-26T01:45:16.111Z,1.83
2024-01-26T01:47:43.766Z,1.74
2024-01-26T01:50:11.453Z,1.82
2024-01-26T01:52:41.453Z,1.82
2024-01-26T01:55:11.188Z,1.85
2024-01-26T01:57:43.681Z,1.86
2024-01-26T02:00:20.234Z,1.85
2024-01-26T02:02:48.817Z,1.82
2024-01-26T02:05:16.980Z,1.85
2024-01-26T02:07:50.892Z,1.88
2024-01-26T02:10:18.349Z,1.87
2024-01-26T02:12:45.338Z,1.90
2024-01-26T02:15:12.144Z,1.95
2024-01-26T02:17:41.196Z,1.90
2024-01-26T02:20:09.004Z,1.97
2024-01-26T02:22:35.963Z,2.02
2024-01-26T02:25:02.734Z,1.97
2024-01-26T02:27:31.330Z,1.91
2024-01-26T02:29:58.117Z,1.88
2024-01-26T02:32:24.747Z,1.83
2024-01-26T02:34:51.687Z,1.75
2024-01-26T02:37:18.390Z,1.60
2024-01-26T02:39:45.065Z,1.50
2024-01-26T02:42:11.867Z,1.33
2024-01-26T02:44:38.748Z,1.11
2024-01-26T02:47:05.457Z,0.95
2024-01-26T02:49:33.215Z,0.75
2024-01-26T02:52:00.038Z,0.62
2024-01-26T02:54:26.794Z,0.48
2024-01-26T02:56:53.741Z,0.35
2024-01-26T02:59:21.985Z,0.25
2024-01-26T03:01:48.656Z,0.15
2024-01-26T03:04:15.784Z,0.05
2024-01-26T03:06:42.788Z,-0.02
2024-01-26T03:09:09.833Z,-0.09
2024-01-26T03:11:41.798Z,-0.12
2024-01-26T03:14:08.819Z,-0.12
2024-01-26T03:16:36.676Z,-0.12
2024-01-26T03:19:03.501Z,-0.10
2024-01-26T03:21:30.346Z,-0.11
2024-01-26T03:23:57.040Z,-0.13
2024-01-26T03:26:24.146Z,-0.14
2024-01-26T03:28:50.872Z,-0.04
2024-01-26T03:31:17.507Z,0.25
2024-01-26T03:33:45.544Z,0.70
2024-01-26T03:36:14.065Z,1.00
2024-01-26T03:38:41.017Z,1.30
2024-01-26T03:41:07.935Z,1.47
2024-01-26T03:43:34.648Z,1.66
2024-01-26T03:46:03.957Z,1.81
2024-01-26T03:48:31.153Z,1.90
2024-01-26T03:50:58.648Z,1.99
2024-01-26T03:53:25.433Z,2.04
2024-01-26T03:55:55.329Z,2.03
2024-01-26T03:58:22.522Z,2.10
2024-01-26T04:00:49.384Z,2.14
2024-01-26T04:03:16.231Z,2.16
2024-01-26T04:05:43.447Z,2.14
2024-01-26T04:08:12.395Z,2.01
2024-01-26T04:10:39.558Z,1.89
2024-01-26T04:13:06.581Z,1.77
2024-01-26T04:15:33.188Z,1.65
2024-01-26T04:18:00.605Z,1.55
2024-01-26T04:20:27.472Z,1.40
2024-01-26T04:22:54.381Z,1.28
2024-01-26T04:25:21.001Z,1.18
2024-01-26T04:27:47.741Z,1.12
2024-01-26T04:30:15.343Z,1.08
2024-01-26T04:32:42.510Z,1.09
2024-01-26T04:35:12.491Z,1.05
2024-01-26T04:37:39.368Z,1.09
2024-01-26T04:40:07.466Z,1.14
2024-01-26T04:42:35.757Z,1.14
2024-01-26T04:45:02.407Z,1.27
2024-01-26T04:47:29.625Z,1.54
2024-01-26T04:49:56.468Z,1.80
2024-01-26T04:52:23.236Z,1.95
2024-01-26T04:54:49.966Z,2.14
2024-01-26T04:57:16.648Z,2.21
2024-01-26T04:59:43.507Z,2.31
2024-01-26T05:02:10.243Z,2.40
2024-01-26T05:04:36.913Z,2.45
2024-01-26T05:07:03.843Z,2.54
2024-01-26T05:09:31.048Z,2.60
2024-01-26T05:11:57.734Z,2.63
2024-01-26T05:14:24.550Z,2.60
2024-01-26T05:16:51.548Z,2.60
2024-01-26T05:19:19.713Z,2.61
2024-01-26T05:21:46.409Z,2.70
2024-01-26T05:24:13.049Z,2.78
2024-01-26T05:26:40.145Z,2.77
2024-01-26T05:29:09.631Z,2.85
2024-01-26T05:31:40.568Z,2.84
2024-01-26T05:34:07.553Z,2.84
2024-01-26T05:36:40.215Z,2.80
2024-01-26T05:39:07.003Z,2.85
2024-01-26T05:41:33.717Z,2.87
2024-01-26T05:44:00.432Z,2.93
2024-01-26T05:46:27.093Z,3.00
2024-01-26T05:48:53.834Z,2.95
2024-01-26T05:51:20.706Z,2.95
2024-01-26T05:53:47.497Z,2.91
2024-01-26T05:56:14.296Z,2.92
2024-01-26T05:58:40.922Z,2.99
2024-01-26T06:01:07.621Z,3.01
2024-01-26T06:03:34.585Z,2.98
2024-01-26T06:06:01.396Z,2.96
2024-01-26T06:08:28.026Z,2.93
2024-01-26T06:10:56.834Z,2.93
2024-01-26T06:13:24.005Z,2.84
2024-01-26T06:15:53.975Z,2.80
2024-01-26T06:18:20.715Z,2.81
2024-01-26T06:20:47.649Z,2.82
2024-01-26T06:23:14.401Z,2.70
2024-01-26T06:25:41.231Z,2.60
2024-01-26T06:28:08.155Z,2.52
2024-01-26T06:30:35.263Z,2.58
2024-01-26T06:33:02.032Z,2.66
2024-01-26T06:35:29.301Z,2.74
2024-01-26T06:37:55.915Z,2.68
2024-01-26T06:40:22.609Z,2.66
2024-01-26T06:42:49.321Z,2.59
2024-01-26T06:45:16.008Z,2.62
2024-01-26T06:47:42.951Z,2.73
2024-01-26T06:50:12.714Z,2.79
2024-01-26T06:52:41.146Z,2.81
2024-01-26T06:55:08.184Z,2.91
2024-01-26T06:57:34.870Z,2.87
2024-01-26T07:00:02.343Z,2.80
2024-01-26T07:02:30.406Z,2.88
2024-01-26T07:04:58.227Z,2.91
2024-01-26T07:07:24.942Z,2.97
2024-01-26T07:09:51.596Z,3.02
2024-01-26T07:12:18.301Z,3.19
2024-01-26T07:14:44.995Z,3.20
2024-01-26T07:17:11.738Z,3.16
2024-01-26T07:19:38.415Z,3.17
2024-01-26T07:22:06.291Z,3.24
2024-01-26T07:24:32.986Z,3.32
2024-01-26T07:26:59.811Z,3.46
2024-01-26T07:29:27.028Z,3.53
2024-01-26T07:31:53.669Z,3.57
2024-01-26T07:34:20.406Z,3.60
2024-01-26T07:36:47.160Z,3.61
2024-01-26T07:39:14.087Z,3.68
2024-01-26T07:41:40.998Z,3.78
2024-01-26T07:44:07.722Z,3.83
2024-01-26T07:46:34.692Z,3.86
2024-01-26T07:49:02.222Z,3.95
2024-01-26T07:51:29.185Z,4.01
2024-01-26T07:53:55.862Z,4.14
2024-01-26T07:56:22.485Z,4.23
2024-01-26T07:58:49.200Z,4.28
2024-01-26T08:01:16.042Z,4.34
2024-01-26T08:03:42.962Z,4.38
2024-01-26T08:06:10.627Z,4.45
2024-01-26T08:08:37.597Z,4.50
2024-01-26T08:11:04.556Z,4.60
2024-01-26T08:13:31.387Z,4.64
2024-01-26T08:15:58.222Z,4.64
2024-01-26T08:18:25.315Z,4.64
2024-01-26T08:20:52.540Z,4.75
2024-01-26T08:23:19.830Z,4.75
2024-01-26T08:25:46.754Z,4.81
2024-01-26T08:28:14.439Z,4.82
2024-01-26T08:30:43.177Z,4.85
2024-01-26T08:33:10.448Z,4.91
2024-01-26T08:35:37.532Z,5.01
2024-01-26T08:38:04.843Z,5.03
2024-01-26T08:40:31.756Z,5.12
2024-01-26T08:42:58.564Z,5.18
2024-01-26T08:45:25.430Z,5.24
2024-01-26T08:47:53.074Z,5.24
2024-01-26T08:50:19.790Z,5.24
2024-01-26T08:52:46.998Z,5.22
2024-01-26T08:55:14.178Z,5.19
2024-01-26T08:57:42.245Z,5.21
2024-01-26T09:00:10.519Z,5.18
2024-01-26T09:02:37.750Z,5.18
2024-01-26T09:05:04.875Z,5.08
2024-01-26T09:07:32.047Z,5.01
2024-01-26T09:09:58.765Z,4.97
2024-01-26T09:12:25.432Z,4.96
2024-01-26T09:14:52.227Z,4.92
2024-01-26T09:17:19.002Z,4.97
2024-01-26T09:19:46.007Z,4.99
2024-01-26T09:22:12.842Z,5.07
2024-01-26T09:24:39.632Z,5.11
2024-01-26T09:27:06.829Z,5.19
2024-01-26T09:29:33.601Z,5.28
2024-01-26T09:32:00.784Z,5.24
2024-01-26T09:34:28.520Z,5.33
2024-01-26T09:36:57.561Z,5.34
2024-01-26T09:39:24.897Z,5.42
2024-01-26T09:41:51.760Z,5.49
2024-01-26T09:44:18.443Z,5.62
2024-01-26T09:46:45.196Z,5.72
2024-01-26T09:49:12.241Z,5.77
2024-01-26T09:51:39.527Z,5.85
2024-01-26T09:54:08.039Z,5.87
2024-01-26T09:56:40.086Z,5.83
2024-01-26T09:59:09.952Z,5.91
2024-01-26T10:01:37.281Z,6.05
2024-01-26T10:04:04.556Z,6.20
2024-01-26T10:06:32.191Z,6.37
2024-01-26T10:08:59.518Z,6.53
2024-01-26T10:11:26.376Z,6.75
2024-01-26T10:13:53.098Z,6.99
2024-01-26T10:16:19.951Z,7.14
2024-01-26T10:18:49.495Z,7.28
2024-01-26T10:21:18.138Z,7.39
2024-01-26T10:23:45.561Z,7.43
2024-01-26T10:26:12.688Z,7.46
2024-01-26T10:28:40.048Z,7.38
2024-01-26T10:31:07.043Z,7.35
2024-01-26T10:33:35.150Z,7.30
2024-01-26T10:36:03.620Z,7.32
2024-01-26T10:38:31.960Z,7.60
2024-01-26T10:41:06.750Z,7.77
2024-01-26T10:43:34.491Z,8.19
2024-01-26T10:46:03.289Z,8.34
2024-01-26T10:48:32.083Z,8.43
2024-01-26T10:51:00.138Z,8.57
2024-01-26T10:53:28.433Z,8.54
2024-01-26T10:55:56.178Z,8.53
2024-01-26T10:58:23.402Z,8.53
2024-01-26T11:00:51.097Z,8.62
2024-01-26T11:03:18.055Z,8.63
2024-01-26T11:05:51.542Z,8.68
2024-01-26T11:08:27.211Z,8.61
2024-01-26T11:10:57.612Z,8.55
2024-01-26T11:13:25.436Z,8.44
2024-01-26T11:15:52.377Z,8.38
2024-01-26T11:18:26.869Z,8.27
2024-01-26T11:20:54.241Z,8.22
2024-01-26T11:23:22.295Z,8.16
2024-01-26T11:25:54.327Z,8.10
2024-01-26T11:28:31.148Z,8.14
2024-01-26T11:30:59.052Z,8.16
2024-01-26T11:33:38.819Z,8.20
2024-01-26T11:36:10.289Z,8.25
2024-01-26T11:38:37.307Z,8.27
2024-01-26T11:41:04.969Z,8.26
2024-01-26T11:43:31.847Z,8.31
2024-01-26T11:45:58.743Z,8.27
2024-01-26T11:48:26.355Z,8.34
2024-01-26T11:50:53.903Z,8.45
2024-01-26T11:53:23.157Z,8.54
2024-01-26T11:55:51.781Z,8.72
2024-01-26T11:58:19.234Z,8.98
2024-01-26T12:00:46.376Z,9.17
2024-01-26T12:03:16.499Z,9.33
2024-01-26T12:05:43.905Z,9.37
2024-01-26T12:08:11.175Z,9.42
2024-01-26T12:10:38.850Z,9.49
2024-01-26T12:13:09.252Z,9.48
2024-01-26T12:15:41.403Z,9.46
2024-01-26T12:18:12.542Z,9.43
2024-01-26T12:20:40.866Z,9.39
2024-01-26T12:23:21.581Z,9.33
2024-01-26T12:25:52.170Z,9.29
2024-01-26T12:28:19.478Z,9.25
2024-01-26T12:30:47.502Z,9.22
2024-01-26T12:33:15.326Z,9.19
2024-01-26T12:35:42.509Z,9.18
2024-01-26T12:38:09.565Z,9.14
2024-01-26T12:40:36.792Z,9.13
2024-01-26T12:43:04.390Z,9.09
2024-01-26T12:45:31.082Z,9.08
2024-01-26T12:47:57.857Z,9.09
2024-01-26T12:50:24.931Z,9.07
2024-01-26T12:52:52.172Z,9.02
2024-01-26T12:55:19.197Z,8.98
2024-01-26T12:57:46.179Z,9.11
2024-01-26T13:00:13.524Z,9.09
2024-01-26T13:02:40.451Z,9.07
2024-01-26T13:05:09.910Z,9.09
2024-01-26T13:07:37.280Z,9.04
2024-01-26T13:10:06.285Z,9.00
2024-01-26T13:12:34.765Z,8.95
2024-01-26T13:15:02.198Z,8.84
2024-01-26T13:17:30.181Z,8.71
2024-01-26T13:20:04.972Z,8.43
2024-01-26T13:22:36.781Z,8.19
2024-01-26T13:25:04.838Z,8.02
2024-01-26T13:27:31.523Z,7.93
2024-01-26T13:29:58.376Z,7.83
2024-01-26T13:32:25.290Z,7.76
2024-01-26T13:34:52.082Z,7.69
2024-01-26T13:37:18.838Z,7.65
2024-01-26T13:39:45.493Z,7.62
2024-01-26T13:42:13.792Z,7.57
2024-01-26T13:44:40.514Z,7.53
2024-01-26T13:47:07.160Z,7.49
2024-01-26T13:49:34.188Z,7.45
2024-01-26T13:52:00.898Z,7.46
2024-01-26T13:54:27.589Z,7.43
2024-01-26T13:56:58.014Z,7.43
2024-01-26T13:59:24.732Z,7.43
2024-01-26T14:01:51.442Z,7.42
2024-01-26T14:04:20.283Z,7.43
2024-01-26T14:06:47.071Z,7.47
2024-01-26T14:09:13.920Z,7.49
2024-01-26T14:11:40.708Z,7.55
2024-01-26T14:14:08.345Z,7.55
2024-01-26T14:16:35.451Z,7.57
2024-01-26T14:19:02.270Z,7.56
2024-01-26T14:21:29.111Z,7.56
2024-01-26T14:23:55.835Z,7.61
2024-01-26T14:26:24.480Z,7.62
2024-01-26T14:28:52.682Z,7.62
2024-01-26T14:31:23.381Z,7.63
2024-01-26T14:33:50.157Z,7.63
2024-01-26T14:36:17.090Z,7.69
2024-01-26T14:38:44.979Z,7.72
2024-01-26T14:41:12.114Z,7.82
2024-01-26T14:43:38.949Z,7.82
2024-01-26T14:46:07.139Z,7.83
2024-01-26T14:48:34.238Z,7.91
2024-01-26T14:51:01.369Z,8.08
2024-01-26T14:53:29.473Z,8.15
2024-01-26T14:55:56.489Z,8.20
2024-01-26T14:58:23.578Z,8.29
2024-01-26T15:00:50.618Z,8.22
2024-01-26T15:03:17.511Z,8.19
2024-01-26T15:05:44.529Z,8.15
2024-01-26T15:08:11.329Z,8.17
2024-01-26T15:10:37.989Z,8.18
2024-01-26T15:13:04.932Z,8.21
2024-01-26T15:15:31.622Z,8.25
2024-01-26T15:17:58.502Z,8.27
2024-01-26T15:20:25.409Z,8.30
2024-01-26T15:22:53.793Z,8.42
2024-01-26T15:25:21.140Z,8.44
2024-01-26T15:27:48.537Z,8.46
2024-01-26T15:30:17.788Z,8.49
2024-01-26T15:32:45.268Z,8.41
2024-01-26T15:35:12.969Z,8.36
2024-01-26T15:37:39.842Z,8.27
2024-01-26T15:40:07.500Z,8.32
2024-01-26T15:42:34.942Z,8.39
2024-01-26T15:45:03.292Z,8.46
2024-01-26T15:47:30.431Z,8.47
2024-01-26T15:49:58.100Z,8.51
2024-01-26T15:52:34.335Z,8.50
2024-01-26T15:55:02.297Z,8.40
2024-01-26T15:57:29.466Z,8.44
2024-01-26T15:59:56.802Z,8.35
2024-01-26T16:02:23.843Z,8.31
2024-01-26T16:04:52.972Z,8.28
2024-01-26T16:07:19.920Z,8.25
2024-01-26T16:09:46.816Z,7.91
2024-01-26T16:12:13.926Z,7.01
2024-01-26T16:14:41.085Z,6.45
2024-01-26T16:17:07.889Z,6.03
2024-01-26T16:19:35.250Z,5.82
2024-01-26T16:22:02.328Z,5.70
2024-01-26T16:24:29.125Z,5.57
2024-01-26T16:26:56.198Z,5.53
2024-01-26T16:29:23.284Z,5.52
2024-01-26T16:31:50.516Z,5.47
2024-01-26T16:34:17.424Z,5.47
2024-01-26T16:37:16.220Z,5.51
2024-01-26T16:39:43.068Z,5.46
2024-01-26T16:42:09.927Z,5.49
2024-01-26T16:44:36.841Z,5.52
2024-01-26T16:47:03.707Z,5.49
2024-01-26T16:49:30.723Z,5.56
2024-01-26T16:52:02.914Z,5.59
2024-01-26T16:54:31.008Z,5.62
2024-01-26T16:56:57.966Z,5.68
2024-01-26T16:59:24.875Z,5.69
2024-01-26T17:01:54.734Z,5.68
2024-01-26T17:04:21.715Z,5.73
2024-01-26T17:06:50.161Z,5.81
2024-01-26T17:09:16.909Z,5.77
2024-01-26T17:11:43.782Z,5.80
2024-01-26T17:14:10.571Z,5.80
2024-01-26T17:16:39.025Z,5.82
2024-01-26T17:19:05.818Z,5.79
2024-01-26T17:21:32.957Z,5.82
2024-01-26T17:23:59.741Z,5.85
2024-01-26T17:26:26.511Z,5.91
2024-01-26T17:28:53.186Z,5.80
2024-01-26T17:31:20.264Z,5.74
2024-01-26T17:33:47.934Z,5.68
2024-01-26T17:36:16.511Z,5.57
2024-01-26T17:38:43.406Z,5.52
2024-01-26T17:41:10.326Z,5.44
2024-01-26T17:43:36.949Z,5.39
2024-01-26T17:46:04.783Z,5.41
2024-01-26T17:48:32.688Z,5.41
2024-01-26T17:51:00.037Z,5.41
2024-01-26T17:53:28.055Z,5.39
2024-01-26T17:55:54.849Z,5.35
2024-01-26T17:58:21.594Z,5.26
2024-01-26T18:00:48.710Z,5.23
2024-01-26T18:03:15.531Z,5.22
2024-01-26T18:05:42.453Z,5.16
2024-01-26T18:08:09.175Z,5.16
2024-01-26T18:10:36.307Z,5.10
2024-01-26T18:13:03.020Z,5.07
2024-01-26T18:15:29.740Z,5.01
2024-01-26T18:17:56.593Z,5.01
2024-01-26T18:20:23.329Z,5.06
2024-01-26T18:22:50.114Z,5.10
2024-01-26T18:25:17.167Z,5.14
2024-01-26T18:27:43.930Z,5.27
2024-01-26T18:30:11.168Z,5.30
2024-01-26T18:32:38.121Z,5.34
2024-01-26T18:35:05.629Z,5.36
2024-01-26T18:37:32.724Z,5.33
2024-01-26T18:39:59.479Z,5.25
2024-01-26T18:42:26.597Z,5.17
2024-01-26T18:44:53.592Z,5.18
2024-01-26T18:47:20.289Z,5.16
2024-01-26T18:49:47.181Z,5.13
2024-01-26T18:52:14.197Z,5.16
2024-01-26T18:54:40.957Z,5.18
2024-01-26T18:57:07.650Z,5.20
2024-01-26T18:59:34.608Z,5.22
2024-01-26T19:02:03.809Z,5.19
2024-01-26T19:04:32.540Z,5.15
2024-01-26T19:07:00.071Z,5.12
2024-01-26T19:09:26.848Z,5.09
2024-01-26T19:11:53.938Z,5.02
2024-01-26T19:14:21.368Z,4.97
2024-01-26T19:16:48.524Z,4.88
2024-01-26T19:19:15.740Z,4.77
2024-01-26T19:21:44.894Z,4.79
2024-01-26T19:24:11.699Z,4.72
2024-01-26T19:26:38.516Z,4.58
2024-01-26T19:29:05.192Z,4.48
2024-01-26T19:31:32.159Z,4.42
2024-01-26T19:33:59.196Z,4.40
2024-01-26T19:36:28.805Z,4.40
2024-01-26T19:38:55.906Z,4.48
2024-01-26T19:41:23.482Z,4.51
2024-01-26T19:43:52.051Z,4.54
2024-01-26T19:46:19.665Z,4.57
2024-01-26T19:48:47.466Z,4.60
2024-01-26T19:51:14.583Z,4.59
2024-01-26T19:53:41.442Z,4.62
2024-01-26T19:56:08.878Z,4.58
2024-01-26T19:58:36.793Z,4.52
2024-01-26T20:01:04.108Z,4.46
2024-01-26T20:03:31.617Z,4.41
2024-01-26T20:05:58.602Z,4.36
2024-01-26T20:08:27.403Z,4.30
2024-01-26T20:10:56.419Z,4.21
2024-01-26T20:13:23.530Z,4.19
2024-01-26T20:15:50.472Z,4.14
2024-01-26T20:18:17.673Z,4.05
2024-01-26T20:20:44.591Z,3.94
2024-01-26T20:23:11.650Z,3.96
2024-01-26T20:25:38.930Z,3.93
2024-01-26T20:28:05.998Z,3.89
2024-01-26T20:30:32.894Z,3.92
2024-01-26T20:33:00.039Z,3.99
2024-01-26T20:35:27.475Z,4.05
2024-01-26T20:37:54.373Z,4.05
2024-01-26T20:40:21.063Z,4.10
2024-01-26T20:42:48.058Z,4.06
2024-01-26T20:45:14.883Z,4.00
2024-01-26T20:47:41.799Z,3.96
2024-01-26T20:50:10.820Z,3.94
2024-01-26T20:52:37.681Z,3.82
2024-01-26T20:55:04.685Z,3.81
2024-01-26T20:57:31.655Z,3.78
2024-01-26T20:59:58.586Z,3.76
2024-01-26T21:02:25.330Z,3.75
2024-01-26T21:04:52.030Z,3.71
2024-01-26T21:07:18.787Z,3.70
2024-01-26T21:09:45.641Z,3.65
2024-01-26T21:12:12.384Z,3.63
2024-01-26T21:14:39.260Z,3.55
2024-01-26T21:17:05.958Z,3.55
2024-01-26T21:19:32.741Z,3.44
2024-01-26T21:21:59.443Z,3.37
2024-01-26T21:24:26.162Z,3.41
2024-01-26T21:26:53.764Z,3.35
2024-01-26T21:29:20.413Z,3.33
2024-01-26T21:31:51.584Z,3.33
2024-01-26T21:34:18.600Z,3.37
2024-01-26T21:36:45.685Z,3.41
2024-01-26T21:41:39.847Z,3.46
2024-01-26T21:44:06.594Z,3.43
2024-01-26T21:46:33.317Z,3.40
2024-01-26T21:49:00.839Z,3.33
2024-01-26T21:51:35.950Z,3.26
2024-01-26T21:54:13.435Z,3.16
2024-01-26T21:56:40.273Z,3.12
2024-01-26T21:59:06.940Z,3.08
2024-01-26T22:01:33.741Z,3.06
2024-01-26T22:04:00.450Z,3.05
2024-01-26T22:06:31.026Z,3.02
2024-01-26T22:08:58.755Z,2.96
2024-01-26T22:11:28.324Z,2.92
2024-01-26T22:13:59.173Z,2.90
2024-01-26T22:16:26.320Z,2.86
2024-01-26T22:18:53.040Z,2.86
2024-01-26T22:21:20.070Z,2.94
2024-01-26T22:23:47.165Z,2.98
2024-01-26T22:26:24.509Z,2.95
2024-01-26T22:28:51.452Z,2.89
2024-01-26T22:31:18.216Z,2.86
2024-01-26T22:33:45.976Z,2.83
2024-01-26T22:36:12.775Z,2.86
2024-01-26T22:38:39.965Z,2.81
2024-01-26T22:41:06.906Z,2.80
2024-01-26T22:43:33.575Z,2.75
2024-01-26T22:46:01.371Z,2.77
2024-01-26T22:48:28.135Z,2.74
2024-01-26T22:50:54.872Z,2.76
2024-01-26T22:53:21.633Z,2.73
2024-01-26T22:55:48.272Z,2.81
2024-01-26T22:58:15.237Z,2.77
2024-01-26T23:00:42.232Z,2.77
2024-01-26T23:03:09.101Z,2.76
2024-01-26T23:05:37.281Z,2.87
2024-01-26T23:08:04.241Z,2.95
2024-01-26T23:10:30.910Z,2.98
2024-01-26T23:13:00.175Z,3.00
2024-01-26T23:15:28.231Z,3.06
2024-01-26T23:17:55.140Z,3.10
2024-01-26T23:20:22.072Z,3.05
2024-01-26T23:22:48.744Z,3.02
2024-01-26T23:25:15.502Z,3.09
2024-01-26T23:27:42.192Z,3.18
2024-01-26T23:30:09.836Z,3.19
2024-01-26T23:32:40.104Z,3.17
2024-01-26T23:35:07.777Z,3.16
2024-01-26T23:37:34.499Z,3.15
2024-01-26T23:40:01.104Z,3.16
2024-01-26T23:42:28.096Z,3.16
2024-01-26T23:44:57.151Z,3.15
2024-01-26T23:47:26.542Z,3.09
2024-01-26T23:49:53.645Z,3.03
2024-01-26T23:52:20.443Z,2.99
2024-01-26T23:54:47.234Z,2.93
2024-01-26T23:57:14.252Z,2.95
2024-01-26T23:59:41.176Z,2.89
